Ewa Beach, HI (96706)

1:42 PM HST on February 14, 2016 (GMT -1000)
Ewa Beach Elem | | Change Station
CLOSE
Current Station
Personal Weather Station
Location: Ewa Beach, HI
Elevation: 46 ft
Nearby Weather Stations

Elev 46 ft 21.34 °N, 158.03 °W | Updated 32 minutes ago

Clear
Clear
83.2 °F
Feels Like 86 °F
N
4.5
Wind Variable Wind from South
Gusts 8.7 mph

Today
High -- | Low -- °F
--% Chance of Precip.
Yesterday
High -- | Low -- °F
Precip. -- in
Pressure 30.10 in
Visibility 10.0 miles
Clouds Clear
Heat Index 86 °F
Dew Point 68 °F
Humidity 60%
Rainfall Not available.
Snow Depth Not available.
7:03 AM 6:29 PM
Waxing Crescent, 46% visible
METAR PHJR 142253Z 19007KT 10SM CLR 28/19 A3008 RMK AO2 SLP192 T02780189
Pressure 30.10 in
Visibility 10.0 miles
Clouds Clear
Heat Index 86 °F
Dew Point 68 °F
Humidity 60%
Rainfall Not available.
Snow Depth Not available.
7:03 AM 6:29 PM
Waxing Crescent, 46% visible
METAR PHJR 142253Z 19007KT 10SM CLR 28/19 A3008 RMK AO2 SLP192 T02780189

10-Day Weather Forecast

Almanac

Astronomy

Feb. 14, 2016 Rise Set
Actual Time
Civil Twilight
Nautical Twilight
Astronomical Twilight
Moon
Length of Visible Light
Length of Day
Tomorrow will be .
, % of the Moon is Illuminated

Today's Extremes

State Highs State Lows

Community

WunderPhotos

Upload Photos

1,892,929 photos uploaded!

WunderBlog® & News

Nearby

Air Quality

  Air Quality AQ Index Pollutant
Not available.

Snow Depth

Station Depth Elevation

Earthquake Activity

City Distance Mag. Time & Date
Minimum magnitude displayed is 2.5.

Coastal Water Temperatures

Place Temperature

Stations

Nearby Weather Stations

Station Location Temp. Windchill Dew Point Humidity Wind Precip. Elev Updated Type
                   

Watches & Warnings

There are currently no watches in effect.